Terminal Aerodrome Forecast
Issued by NWS

Home | Current Version | Previous Version | Text Only | Print | Product List | Glossary On
Versions: 1 2 3 4 5 6 7 8 9 10 11 12 13 14 15 16
000
FTUS41 KBGM 242330
TAFRME
TAF
KRME 242330Z 2500/2524 10004KT P6SM FEW250
     FM250800 12009KT P6SM BKN100
     FM251300 10012G18KT P6SM -RA OVC035
     FM251800 11014G27KT P6SM -RA OVC020=

USA.gov is the U.S. government's official web portal to all federal, state and local government web resources and services.